Airfield :
LOGIN :

Register | Disclaimer

   EN    FR    IT 

 










Legend :    VFR   Marginal VFR   IFR   Intensive IFR   Very Intensive IFR
Visi :
Ceiling :
>= 8 km
>= 3000ft
5 to 8 km
1000 to 3000 ft
1500m to 5 km
500 to 1000 ft
800 to 1500m
200 to 500 ft
< 800m
< 200 ft
Symbols :   Thunderstorms  Fog  Heavy snow  Heavy precipitations  Wind > 20 kt
SIGMETs :     Misc.  Thunderstorms  Icing  Turbulence  Mountain Waves  Volcanic Ashes






- Airport Elevation : 157 ft
- IATA code : LIL


LFQQ - Lille Lesquin

CURRENT METAR :
  • 252330Z AUTO 28022KT 9999 -RA SCT023/// BKN029/// BKN037/// ///TCU 10/07 Q1001 TEMPO 30025G40KT 3000 SHRA

EXPIRED METARs :
  • 252300Z AUTO 28021G33KT 9999 -RA FEW026/// BKN039/// OVC052/// ///TCU 10/07 Q1002 TEMPO 3000 SHRA
  • 252230Z AUTO 28023G35KT 9999 -RA SCT031/// BKN039/// OVC045/// ///TCU 11/06 Q1002 TEMPO 3000 SHRA
  • 252200Z AUTO 28023G37KT 9999 SCT042 OVC049 12/04 Q1002 TEMPO 3000 SHRA BKN020TCU
  • 252130Z AUTO 29024KT 9999 BKN045 BKN054 OVC100 12/04 Q1002 TEMPO 30025G40KT 3000 SHRA BKN020TCU
  • 252100Z AUTO 29024G35KT CAVOK 12/04 Q1002 TEMPO 3000 SHRA BKN020TCU
  • 252030Z AUTO 29026G37KT CAVOK 12/04 Q1002 TEMPO 3000 SHRA BKN020TCU

TAF TAF LFQQ
Valid from the 26 at 00:00 until the 27 at 06:00 UTC


252300Z 2600/2706 30020G30KT 9999 BKN030
TEMPO 2600/2606 30025G40KT 3000 SHRA BKN020TCU
BECMG 2612/2615 30013KT
TEMPO 2612/2706 30020G30KT 3000 SHRA BKN010 BKN025CB
ATIS : +33 3 20 16 19 54



MET'MAP, your aeronautical weather chart ! - Copyright ORBIFLY December 2007 - Disclaimer

ORBIFLY MET'MAP TEAM :

Programming & Development : Alexandra Zaïnal
Concept & original design : Baudouin d'Aumeries
Assistance for programming : Marc-Olivier Méhu
Technical & hardware support : Manuel Goepfert

Contact : metmap@orbifly.com




SOURCES & CREDITS :

   NOAA